createdAt,value
2022-12-25T00:00:06.533Z,10.67
2022-12-25T00:02:34.781Z,13.77
2022-12-25T00:05:03.218Z,11.33
2022-12-25T00:07:31.817Z,10.90
2022-12-25T00:10:01.278Z,11.53
2022-12-25T00:12:29.422Z,14.33
2022-12-25T00:14:57.696Z,15.90
2022-12-25T00:17:25.906Z,16.63
2022-12-25T00:19:54.051Z,9.80
2022-12-25T00:22:22.176Z,11.10
2022-12-25T00:24:50.650Z,15.00
2022-12-25T00:27:20.108Z,8.67
2022-12-25T00:29:48.205Z,10.60
2022-12-25T00:32:16.337Z,12.03
2022-12-25T00:34:44.496Z,9.77
2022-12-25T00:37:12.772Z,11.50
2022-12-25T00:39:41.015Z,16.97
2022-12-25T00:42:20.012Z,11.67
2022-12-25T00:44:50.776Z,10.40
2022-12-25T00:47:19.512Z,12.37
2022-12-25T00:49:47.715Z,9.40
2022-12-25T00:52:16.299Z,9.20
2022-12-25T00:54:44.443Z,10.03
2022-12-25T00:57:12.566Z,9.97
2022-12-25T00:59:40.739Z,11.57
2022-12-25T01:02:25.794Z,10.47
2022-12-25T01:04:56.600Z,8.53
2022-12-25T01:07:27.423Z,10.47
2022-12-25T01:10:12.935Z,9.70
2022-12-25T01:12:44.194Z,7.73
2022-12-25T01:15:14.396Z,8.73
2022-12-25T01:17:44.964Z,10.27
2022-12-25T01:20:16.092Z,9.73
2022-12-25T01:22:44.654Z,9.63
2022-12-25T01:25:14.045Z,11.40
2022-12-25T01:27:43.193Z,9.50
2022-12-25T01:30:12.893Z,11.30
2022-12-25T01:32:41.020Z,11.23
2022-12-25T01:35:12.017Z,10.20
2022-12-25T01:37:41.198Z,10.87
2022-12-25T01:40:10.823Z,12.53
2022-12-25T01:42:39.127Z,11.93
2022-12-25T01:45:35.770Z,10.70
2022-12-25T01:48:09.862Z,11.73
2022-12-25T01:50:45.371Z,13.93
2022-12-25T01:53:13.981Z,11.07
2022-12-25T01:55:45.944Z,12.43
2022-12-25T01:58:14.608Z,12.60
2022-12-25T02:00:42.975Z,8.27
2022-12-25T02:03:11.260Z,12.67
2022-12-25T02:05:41.227Z,23.70
2022-12-25T02:08:13.607Z,30.27
2022-12-25T02:10:44.625Z,25.93
2022-12-25T02:13:15.546Z,23.60
2022-12-25T02:15:56.544Z,26.03
2022-12-25T02:18:38.566Z,28.10
2022-12-25T02:21:53.210Z,22.27
2022-12-25T02:24:55.189Z,20.83
2022-12-25T02:27:55.864Z,23.27
2022-12-25T02:30:25.551Z,16.70
2022-12-25T02:33:15.072Z,18.10
2022-12-25T02:35:48.321Z,15.73
2022-12-25T02:38:22.582Z,14.97
2022-12-25T02:40:56.169Z,19.30
2022-12-25T02:43:49.411Z,16.83
2022-12-25T02:46:41.879Z,15.47
2022-12-25T02:49:33.617Z,9.47
2022-12-25T02:52:27.615Z,11.77
2022-12-25T02:55:21.337Z,10.03
2022-12-25T02:58:12.221Z,13.10
2022-12-25T03:01:13.276Z,12.23
2022-12-25T03:04:04.106Z,9.77
2022-12-25T03:06:43.771Z,14.57
2022-12-25T03:09:36.386Z,12.43
2022-12-25T03:12:14.420Z,14.63
2022-12-25T03:15:02.473Z,17.67
2022-12-25T03:17:33.284Z,13.47
2022-12-25T03:20:20.748Z,15.07
2022-12-25T03:23:08.167Z,10.13
2022-12-25T03:25:53.800Z,8.00
2022-12-25T03:28:21.869Z,10.97
2022-12-25T03:31:13.563Z,9.13
2022-12-25T03:34:21.029Z,9.27
2022-12-25T03:37:17.759Z,13.83
2022-12-25T03:40:13.391Z,15.53
2022-12-25T03:43:10.618Z,9.23
2022-12-25T03:46:04.832Z,11.37
2022-12-25T03:48:56.613Z,10.03
2022-12-25T03:51:53.193Z,9.93
2022-12-25T03:54:47.434Z,10.63
2022-12-25T03:57:33.758Z,12.93
2022-12-25T04:00:15.768Z,11.23
2022-12-25T04:03:01.811Z,12.90
2022-12-25T04:05:47.689Z,12.93
2022-12-25T04:08:33.386Z,10.57
2022-12-25T04:11:34.975Z,9.47
2022-12-25T04:14:20.748Z,12.57
2022-12-25T04:17:06.596Z,12.17
2022-12-25T04:19:54.758Z,10.13
2022-12-25T04:22:40.235Z,9.10
2022-12-25T04:25:26.579Z,15.63
2022-12-25T04:28:19.247Z,10.50
2022-12-25T04:31:05.441Z,6.80
2022-12-25T04:33:51.012Z,13.63
2022-12-25T04:36:19.153Z,10.33
2022-12-25T04:38:47.285Z,9.57
2022-12-25T04:41:16.007Z,12.37
2022-12-25T04:43:45.492Z,7.17
2022-12-25T04:46:13.742Z,10.87
2022-12-25T04:48:41.915Z,12.33
2022-12-25T04:51:16.191Z,11.50
2022-12-25T04:53:44.822Z,12.53
2022-12-25T04:56:13.023Z,12.57
2022-12-25T04:58:41.311Z,10.27
2022-12-25T05:01:11.077Z,10.63
2022-12-25T05:03:40.054Z,11.83
2022-12-25T05:06:08.947Z,9.77
2022-12-25T05:08:37.957Z,13.70
2022-12-25T05:11:11.695Z,9.73
2022-12-25T05:13:40.722Z,8.20
2022-12-25T05:16:15.356Z,15.27
2022-12-25T05:18:44.143Z,12.33
2022-12-25T05:21:13.488Z,8.70
2022-12-25T05:23:48.263Z,13.83
2022-12-25T05:26:18.225Z,11.17
2022-12-25T05:28:46.875Z,13.23
2022-12-25T05:31:16.865Z,13.27
2022-12-25T05:33:45.116Z,11.03
2022-12-25T05:36:14.207Z,14.27
2022-12-25T05:38:42.338Z,12.03
2022-12-25T05:41:10.767Z,9.27
2022-12-25T05:43:38.895Z,10.70
2022-12-25T05:46:08.243Z,13.53
2022-12-25T05:48:39.446Z,11.23
2022-12-25T05:51:09.890Z,11.73
2022-12-25T05:53:39.135Z,12.60
2022-12-25T05:56:09.776Z,8.97
2022-12-25T05:58:42.115Z,12.83
2022-12-25T06:01:17.098Z,10.30
2022-12-25T06:03:46.872Z,12.73
2022-12-25T06:06:15.835Z,10.20
2022-12-25T06:08:44.549Z,11.67
2022-12-25T06:11:15.824Z,13.10
2022-12-25T06:13:44.121Z,15.43
2022-12-25T06:16:13.713Z,11.80
2022-12-25T06:18:51.834Z,12.57
2022-12-25T06:21:19.958Z,7.60
2022-12-25T06:23:48.287Z,9.20
2022-12-25T06:26:19.497Z,9.87
2022-12-25T06:28:47.990Z,9.63
2022-12-25T06:31:20.498Z,13.13
2022-12-25T06:33:50.410Z,10.73
2022-12-25T06:36:21.800Z,12.77
2022-12-25T06:38:50.152Z,12.87
2022-12-25T06:41:21.159Z,8.83
2022-12-25T06:43:50.479Z,10.80
2022-12-25T06:46:19.570Z,11.03
2022-12-25T06:48:49.592Z,10.87
2022-12-25T06:51:21.740Z,13.20
2022-12-25T06:53:51.609Z,9.90
2022-12-25T06:56:24.045Z,10.93
2022-12-25T06:58:54.563Z,11.20
2022-12-25T07:01:27.658Z,13.07
2022-12-25T07:04:00.006Z,10.97
2022-12-25T07:06:30.070Z,11.67
2022-12-25T07:08:58.364Z,13.20
2022-12-25T07:11:26.929Z,12.80
2022-12-25T07:13:55.075Z,13.47
2022-12-25T07:16:23.428Z,13.40
2022-12-25T07:18:51.600Z,13.17
2022-12-25T07:21:22.407Z,10.50
2022-12-25T07:23:51.967Z,10.97
2022-12-25T07:26:20.910Z,15.63
2022-12-25T07:28:49.050Z,11.20
2022-12-25T07:31:19.422Z,12.70
2022-12-25T07:33:47.828Z,9.10
2022-12-25T07:36:16.836Z,9.07
2022-12-25T07:38:45.725Z,10.87
2022-12-25T07:41:15.210Z,11.83
2022-12-25T07:43:43.547Z,11.13
2022-12-25T07:46:12.207Z,11.80
2022-12-25T07:48:40.401Z,8.40
2022-12-25T07:51:14.392Z,10.83
2022-12-25T07:53:43.534Z,12.97
2022-12-25T07:56:17.057Z,11.13
2022-12-25T07:58:45.565Z,15.00
2022-12-25T08:01:17.669Z,10.33
2022-12-25T08:03:50.740Z,9.00
2022-12-25T08:06:20.252Z,10.47
2022-12-25T08:08:48.736Z,8.77
2022-12-25T08:11:18.212Z,10.33
2022-12-25T08:13:46.383Z,12.30
2022-12-25T08:16:14.582Z,10.77
2022-12-25T08:18:43.020Z,10.97
2022-12-25T08:21:14.267Z,7.33
2022-12-25T08:23:46.830Z,9.70
2022-12-25T08:26:19.280Z,12.43
2022-12-25T08:28:47.976Z,10.60
2022-12-25T08:31:19.319Z,11.00
2022-12-25T08:33:49.286Z,11.43
2022-12-25T08:36:18.346Z,9.17
2022-12-25T08:38:47.445Z,9.40
2022-12-25T08:41:17.634Z,12.67
2022-12-25T08:43:46.395Z,9.07
2022-12-25T08:46:14.725Z,11.47
2022-12-25T08:48:43.627Z,13.57
2022-12-25T08:51:15.603Z,11.87
2022-12-25T08:53:44.439Z,10.00
2022-12-25T08:56:13.265Z,7.90
2022-12-25T08:58:43.998Z,9.30
2022-12-25T09:01:13.076Z,9.57
2022-12-25T09:03:41.841Z,9.17
2022-12-25T09:06:13.580Z,10.20
2022-12-25T09:08:48.520Z,8.47
2022-12-25T09:11:19.069Z,10.00
2022-12-25T09:13:49.771Z,7.87
2022-12-25T09:16:22.116Z,11.80
2022-12-25T09:18:51.118Z,9.27
2022-12-25T09:21:20.363Z,7.93
2022-12-25T09:23:48.791Z,8.60
2022-12-25T09:26:19.448Z,9.80
2022-12-25T09:28:52.294Z,7.97
2022-12-25T09:31:22.665Z,6.27
2022-12-25T09:33:51.361Z,5.87
2022-12-25T09:36:21.285Z,7.50
2022-12-25T09:38:49.481Z,7.20
2022-12-25T09:41:27.719Z,7.27
2022-12-25T09:44:04.797Z,8.90
2022-12-25T09:46:43.094Z,6.43
2022-12-25T09:49:21.413Z,8.00
2022-12-25T09:51:58.032Z,7.77
2022-12-25T09:54:40.602Z,7.90
2022-12-25T09:57:12.931Z,7.20
2022-12-25T09:59:45.003Z,10.53
2022-12-25T10:02:43.872Z,7.57
2022-12-25T10:05:48.643Z,12.03
2022-12-25T10:08:33.192Z,7.60
2022-12-25T10:11:17.117Z,7.90
2022-12-25T10:14:08.551Z,6.87
2022-12-25T10:16:54.203Z,9.60
2022-12-25T10:19:38.264Z,8.37
2022-12-25T10:22:17.747Z,8.07
2022-12-25T10:24:51.058Z,8.07
2022-12-25T10:27:26.369Z,9.03
2022-12-25T10:29:55.553Z,7.07
2022-12-25T10:32:25.031Z,7.23
2022-12-25T10:34:53.237Z,7.30
2022-12-25T10:37:21.459Z,6.57
2022-12-25T10:39:49.574Z,8.60
2022-12-25T10:42:38.491Z,7.17
2022-12-25T10:45:10.114Z,8.33
2022-12-25T10:47:42.568Z,6.00
2022-12-25T10:50:19.283Z,8.07
2022-12-25T10:53:04.830Z,9.43
2022-12-25T10:55:33.978Z,6.63
2022-12-25T10:58:02.877Z,6.73
2022-12-25T11:00:33.620Z,5.53
2022-12-25T11:03:03.425Z,6.80
2022-12-25T11:05:34.016Z,9.17
2022-12-25T11:08:04.727Z,6.60
2022-12-25T11:10:36.748Z,7.67
2022-12-25T11:13:09.000Z,6.87
2022-12-25T11:15:41.391Z,6.70
2022-12-25T11:18:23.120Z,7.57
2022-12-25T11:20:53.097Z,9.67
2022-12-25T11:23:24.069Z,7.87
2022-12-25T11:26:00.962Z,8.83
2022-12-25T11:28:32.471Z,8.13
2022-12-25T11:31:06.704Z,4.63
2022-12-25T11:33:41.925Z,6.87
2022-12-25T11:36:20.664Z,8.70
2022-12-25T11:38:48.949Z,5.60
2022-12-25T11:41:23.180Z,7.47
2022-12-25T11:43:58.013Z,8.37
2022-12-25T11:46:32.049Z,7.97
2022-12-25T11:49:08.218Z,5.80
2022-12-25T11:51:42.810Z,7.33
2022-12-25T11:54:24.101Z,8.37
2022-12-25T11:56:53.296Z,10.27
2022-12-25T11:59:29.265Z,8.53
2022-12-25T12:02:04.450Z,7.37
2022-12-25T12:04:43.113Z,6.87
2022-12-25T12:07:25.568Z,9.90
2022-12-25T12:10:06.848Z,8.90
2022-12-25T12:12:48.770Z,6.37
2022-12-25T12:15:30.731Z,8.27
2022-12-25T12:18:10.764Z,8.10
2022-12-25T12:20:40.421Z,7.27
2022-12-25T12:23:17.658Z,9.27
2022-12-25T12:25:46.635Z,9.00
2022-12-25T12:28:25.736Z,6.47
2022-12-25T12:31:04.638Z,6.30
2022-12-25T12:33:38.693Z,8.90
2022-12-25T12:36:13.929Z,6.80
2022-12-25T12:38:44.321Z,8.37
2022-12-25T12:41:15.313Z,6.03
2022-12-25T12:43:48.166Z,8.37
2022-12-25T12:46:27.898Z,8.70
2022-12-25T12:49:20.527Z,7.40
2022-12-25T12:51:52.153Z,6.87
2022-12-25T12:54:24.077Z,6.37
2022-12-25T12:57:04.345Z,8.20
2022-12-25T12:59:43.487Z,6.97
2022-12-25T13:02:51.056Z,10.77
2022-12-25T13:05:34.904Z,8.57
2022-12-25T13:08:45.928Z,5.47
2022-12-25T13:11:21.141Z,7.70
2022-12-25T13:13:52.129Z,7.57
2022-12-25T13:16:30.992Z,10.23
2022-12-25T13:19:01.810Z,6.60
2022-12-25T13:21:31.784Z,6.50
2022-12-25T13:24:04.630Z,9.07
2022-12-25T13:26:32.840Z,6.33
2022-12-25T13:29:02.868Z,5.23
2022-12-25T13:31:33.337Z,4.87
2022-12-25T13:34:06.782Z,8.37
2022-12-25T13:36:42.538Z,4.87
2022-12-25T13:39:19.128Z,5.00
2022-12-25T13:42:10.320Z,5.27
2022-12-25T13:44:51.360Z,3.73
2022-12-25T13:47:25.164Z,5.07
2022-12-25T13:49:56.570Z,4.07
2022-12-25T13:52:33.920Z,4.17
2022-12-25T13:55:11.912Z,4.63
2022-12-25T13:57:45.996Z,5.47
2022-12-25T14:00:22.205Z,4.20
2022-12-25T14:02:51.255Z,6.10
2022-12-25T14:05:34.555Z,4.23
2022-12-25T14:08:16.204Z,4.10
2022-12-25T14:10:51.717Z,4.90
2022-12-25T14:13:24.306Z,8.20
2022-12-25T14:15:53.349Z,4.77
2022-12-25T14:18:24.550Z,4.53
2022-12-25T14:21:02.219Z,5.83
2022-12-25T14:23:42.543Z,5.80
2022-12-25T14:26:19.284Z,5.57
2022-12-25T14:28:50.801Z,7.23
2022-12-25T14:31:20.012Z,6.90
2022-12-25T14:33:49.592Z,5.27
2022-12-25T14:36:18.087Z,4.93
2022-12-25T14:38:56.993Z,6.37
2022-12-25T14:41:37.727Z,6.80
2022-12-25T14:44:28.086Z,4.93
2022-12-25T14:47:14.047Z,6.60
2022-12-25T14:49:43.159Z,5.80
2022-12-25T14:52:20.548Z,5.53
2022-12-25T14:54:52.027Z,5.83
2022-12-25T14:57:29.197Z,5.07
2022-12-25T15:00:01.538Z,6.23
2022-12-25T15:02:45.566Z,5.70
2022-12-25T15:05:33.814Z,4.90
2022-12-25T15:08:21.149Z,6.13
2022-12-25T15:11:00.356Z,6.43
2022-12-25T15:13:32.604Z,6.83
2022-12-25T15:16:12.949Z,7.53
2022-12-25T15:18:44.559Z,5.27
2022-12-25T15:21:18.656Z,5.73
2022-12-25T15:23:47.243Z,5.67
2022-12-25T15:26:16.632Z,6.77
2022-12-25T15:28:46.155Z,5.20
2022-12-25T15:31:23.406Z,8.17
2022-12-25T15:33:52.014Z,6.47
2022-12-25T15:36:20.235Z,5.83
2022-12-25T15:38:49.494Z,7.20
2022-12-25T15:41:35.501Z,5.83
2022-12-25T15:44:07.672Z,6.93
2022-12-25T15:46:36.139Z,9.67
2022-12-25T15:49:04.484Z,7.53
2022-12-25T15:51:32.755Z,5.17
2022-12-25T15:54:01.177Z,5.60
2022-12-25T15:56:31.033Z,4.80
2022-12-25T15:58:59.227Z,4.30
2022-12-25T16:01:28.848Z,5.07
2022-12-25T16:03:57.154Z,5.97
2022-12-25T16:06:25.311Z,8.20
2022-12-25T16:08:53.523Z,8.63
2022-12-25T16:11:21.719Z,9.40
2022-12-25T16:13:50.373Z,7.23
2022-12-25T16:16:18.542Z,7.10
2022-12-25T16:18:48.077Z,7.37
2022-12-25T16:21:21.305Z,10.03
2022-12-25T16:23:49.581Z,7.63
2022-12-25T16:26:17.980Z,10.70
2022-12-25T16:28:46.349Z,10.60
2022-12-25T16:31:14.588Z,12.93
2022-12-25T16:33:42.721Z,10.77
2022-12-25T16:36:12.496Z,11.07
2022-12-25T16:38:40.611Z,9.77
2022-12-25T16:41:09.407Z,10.60
2022-12-25T16:43:37.516Z,11.73
2022-12-25T16:46:11.455Z,9.90
2022-12-25T16:48:39.667Z,10.13
2022-12-25T16:51:14.726Z,10.10
2022-12-25T16:53:43.614Z,11.33
2022-12-25T16:56:16.116Z,10.37
2022-12-25T16:58:46.884Z,12.03
2022-12-25T17:01:17.710Z,9.90
2022-12-25T17:03:47.170Z,11.37
2022-12-25T17:06:19.827Z,12.80
2022-12-25T17:08:48.751Z,11.47
2022-12-25T17:11:19.083Z,10.93
2022-12-25T17:13:48.406Z,9.70
2022-12-25T17:16:20.039Z,10.20
2022-12-25T17:18:48.476Z,12.23
2022-12-25T17:21:17.961Z,9.47
2022-12-25T17:23:46.114Z,9.37
2022-12-25T17:26:14.266Z,9.97
2022-12-25T17:28:42.689Z,9.20
2022-12-25T17:31:14.358Z,9.67
2022-12-25T17:33:45.313Z,9.40
2022-12-25T17:36:18.254Z,10.43
2022-12-25T17:38:47.482Z,10.03
2022-12-25T17:41:18.313Z,8.13
2022-12-25T17:43:47.308Z,9.53
2022-12-25T17:46:18.859Z,9.23
2022-12-25T17:48:49.943Z,10.47
2022-12-25T17:51:22.766Z,7.83
2022-12-25T17:53:53.994Z,6.10
2022-12-25T17:56:24.008Z,6.47
2022-12-25T17:58:54.442Z,7.00
2022-12-25T18:01:24.821Z,6.63
2022-12-25T18:03:53.852Z,8.27
2022-12-25T18:06:27.819Z,6.53
2022-12-25T18:08:57.633Z,7.53
2022-12-25T18:11:32.606Z,7.63
2022-12-25T18:14:04.819Z,6.57
2022-12-25T18:16:37.317Z,6.57
2022-12-25T18:19:05.853Z,8.03
2022-12-25T18:21:35.608Z,6.30
2022-12-25T18:24:05.497Z,7.17
2022-12-25T18:26:33.993Z,6.20
2022-12-25T18:29:02.205Z,5.90
2022-12-25T18:31:31.130Z,5.53
2022-12-25T18:34:00.472Z,6.00
2022-12-25T18:36:30.578Z,6.37
2022-12-25T18:39:00.813Z,5.00
2022-12-25T18:41:30.285Z,4.70
2022-12-25T18:44:00.841Z,6.40
2022-12-25T18:46:29.621Z,5.40
2022-12-25T18:49:00.968Z,5.93
2022-12-25T18:51:34.928Z,6.00
2022-12-25T18:54:06.675Z,5.03
2022-12-25T18:56:34.810Z,4.97
2022-12-25T18:59:03.449Z,5.87
2022-12-25T19:01:31.638Z,7.97
2022-12-25T19:04:05.075Z,4.00
2022-12-25T19:06:33.919Z,4.17
2022-12-25T19:09:09.231Z,6.87
2022-12-25T19:11:45.966Z,4.83
2022-12-25T19:14:15.930Z,4.13
2022-12-25T19:16:44.303Z,4.40
2022-12-25T19:19:13.154Z,4.83
2022-12-25T19:21:41.437Z,3.87
2022-12-25T19:24:09.777Z,4.43
2022-12-25T19:26:39.329Z,4.87
2022-12-25T19:29:07.522Z,5.00
2022-12-25T19:31:37.144Z,3.53
2022-12-25T19:34:06.206Z,5.07
2022-12-25T19:36:34.748Z,3.60
2022-12-25T19:39:02.981Z,3.83
2022-12-25T19:41:31.394Z,3.20
2022-12-25T19:44:02.043Z,5.03
2022-12-25T19:46:33.262Z,3.43
2022-12-25T19:49:04.227Z,3.67
2022-12-25T19:51:36.955Z,3.73
2022-12-25T19:54:07.179Z,3.90
2022-12-25T19:56:36.087Z,4.27
2022-12-25T19:59:05.573Z,3.37
2022-12-25T20:01:34.322Z,3.80
2022-12-25T20:04:02.747Z,2.67
2022-12-25T20:06:33.904Z,3.20
2022-12-25T20:09:06.529Z,5.23
2022-12-25T20:11:36.619Z,3.67
2022-12-25T20:14:07.637Z,4.17
2022-12-25T20:16:39.648Z,4.33
2022-12-25T20:19:08.976Z,3.47
2022-12-25T20:21:37.120Z,3.17
2022-12-25T20:24:09.113Z,4.00
2022-12-25T20:26:38.378Z,2.70
2022-12-25T20:29:08.173Z,3.00
2022-12-25T20:31:37.051Z,3.70
2022-12-25T20:34:08.895Z,2.83
2022-12-25T20:36:38.308Z,3.13
2022-12-25T20:39:09.352Z,3.60
2022-12-25T20:41:38.330Z,3.10
2022-12-25T20:44:09.884Z,3.20
2022-12-25T20:46:38.124Z,3.10
2022-12-25T20:49:06.383Z,4.80
2022-12-25T20:51:34.465Z,2.87
2022-12-25T20:54:08.418Z,3.77
2022-12-25T20:56:37.553Z,2.57
2022-12-25T20:59:06.931Z,2.50
2022-12-25T21:01:35.159Z,4.30
2022-12-25T21:04:03.495Z,2.70
2022-12-25T21:06:31.742Z,2.93
2022-12-25T21:08:59.947Z,2.93
2022-12-25T21:11:30.398Z,4.53
2022-12-25T21:13:59.133Z,5.60
2022-12-25T21:16:29.844Z,2.60
2022-12-25T21:18:58.040Z,2.40
2022-12-25T21:21:26.766Z,2.37
2022-12-25T21:23:57.777Z,3.00
2022-12-25T21:26:29.336Z,2.40
2022-12-25T21:29:01.127Z,3.30
2022-12-25T21:31:51.706Z,3.57
2022-12-25T21:34:18.922Z,3.80
2022-12-25T21:36:47.044Z,2.27
2022-12-25T21:39:15.649Z,2.43
2022-12-25T21:41:43.794Z,2.90
2022-12-25T21:44:12.718Z,2.60
2022-12-25T21:46:42.350Z,2.40
2022-12-25T21:49:10.759Z,3.40
2022-12-25T21:51:56.410Z,3.80
2022-12-25T21:54:24.795Z,2.20
2022-12-25T21:56:52.832Z,3.23
2022-12-25T21:59:22.673Z,2.53
2022-12-25T22:01:54.176Z,2.83
2022-12-25T22:04:24.693Z,4.47
2022-12-25T22:07:10.759Z,2.60
2022-12-25T22:09:39.006Z,4.70
2022-12-25T22:12:31.973Z,3.13
2022-12-25T22:15:06.492Z,3.67
2022-12-25T22:17:56.519Z,2.63
2022-12-25T22:20:28.093Z,2.47
2022-12-25T22:22:56.732Z,2.37
2022-12-25T22:25:25.714Z,2.50
2022-12-25T22:27:54.586Z,3.70
2022-12-25T22:30:26.553Z,3.40
2022-12-25T22:32:56.792Z,3.87
2022-12-25T22:35:25.455Z,2.47
2022-12-25T22:37:54.363Z,4.17
2022-12-25T22:40:24.170Z,2.53
2022-12-25T22:42:55.850Z,3.53
2022-12-25T22:45:24.355Z,2.67
2022-12-25T22:47:52.576Z,4.97
2022-12-25T22:50:22.115Z,2.73
2022-12-25T22:52:50.300Z,3.40
2022-12-25T22:55:20.534Z,2.93
2022-12-25T22:57:49.246Z,5.63
2022-12-25T23:00:17.511Z,4.20
2022-12-25T23:02:45.901Z,2.47
2022-12-25T23:05:14.603Z,3.60
2022-12-25T23:07:44.088Z,3.07
2022-12-25T23:10:13.046Z,3.00
2022-12-25T23:12:58.623Z,4.10
2022-12-25T23:15:27.571Z,3.57
2022-12-25T23:18:13.476Z,3.00
2022-12-25T23:20:59.475Z,3.87
2022-12-25T23:23:46.429Z,5.50
2022-12-25T23:26:16.883Z,3.20
2022-12-25T23:29:02.861Z,3.23
2022-12-25T23:31:37.054Z,3.23
2022-12-25T23:34:06.789Z,3.87
2022-12-25T23:36:35.484Z,3.50
2022-12-25T23:39:10.169Z,3.53
2022-12-25T23:41:39.391Z,2.70
2022-12-25T23:44:07.958Z,3.70
2022-12-25T23:46:37.041Z,6.10
2022-12-25T23:49:05.820Z,3.90
2022-12-25T23:51:36.455Z,4.97
2022-12-25T23:54:06.909Z,5.73
2022-12-25T23:56:35.323Z,5.03
2022-12-25T23:59:03.751Z,3.93
